X  Sluiten METAR luchtvaart weer gegevens         LPMA Madeira Airport
Temperatuur
25°C Temperatuur
18°C Dauwpunt
65% Vochtigheid



Wind
20 KM/U
13 MPH
6 M/S
11 KTS



360°
N
Huidig weer

Mostly Sunny Grotendeels zonnig
Luchtdruk 1019 (hPa) - 30.08 (inHg)
Zicht 6 (mijl) - 10 (km)
Vliegveld
Vliegveld code LPMA

Locatie : Madeira Airport
Afstand: 51 (km)

Metar:
METAR LPMA 200700Z 36011KT 9999 FEW015 25/18 Q1019

Tijd: 20-07-2024 08:00 WEST